Airfield :
LOGIN :

Register | Disclaimer

   EN    FR    IT 

 










Legend :    VFR   Marginal VFR   IFR   Intensive IFR   Very Intensive IFR
Visi :
Ceiling :
>= 8 km
>= 3000ft
5 to 8 km
1000 to 3000 ft
1500m to 5 km
500 to 1000 ft
800 to 1500m
200 to 500 ft
< 800m
< 200 ft
Symbols :   Thunderstorms  Fog  Heavy snow  Heavy precipitations  Wind > 20 kt
SIGMETs :     Misc.  Thunderstorms  Icing  Turbulence  Mountain Waves  Volcanic Ashes






- Airport Elevation : 348 ft
- IATA code : LDV


LFRJ - Landivisiau

CURRENT METAR :
  • 280130Z AUTO 25017KT 6000 -RA FEW017/// BKN030/// BKN058/// ///TCU 11/09 Q1006

EXPIRED METARs :
  • 280100Z AUTO 24013KT 9999 FEW028/// SCT076/// ///TCU 11/08 Q1006
  • 280030Z AUTO 25018KT CAVOK 12/07 Q1006
  • 280000Z AUTO 25019KT 9999 FEW033 SCT040 12/08 Q1006
  • 272330Z AUTO 24015KT 9999 BKN035 OVC230 12/08 Q1006
  • 272300Z AUTO 24015KT 9999 SCT036/// SCT054/// BKN064/// ///TCU 11/08 Q1006

TAF TAF LFRJ
Valid from the 27 at 18:00 until the 28 at 03:00 UTC


271700Z 2718/2803 25012KT 9999 BKN020 BKN060
TEMPO 2718/2720 25015G25KT SHRA BKN015TCU
BECMG 2721/2723 23020G30KT



MET'MAP, your aeronautical weather chart ! - Copyright ORBIFLY December 2007 - Disclaimer

ORBIFLY MET'MAP TEAM :

Programming & Development : Alexandra Zaïnal
Concept & original design : Baudouin d'Aumeries
Assistance for programming : Marc-Olivier Méhu
Technical & hardware support : Manuel Goepfert

Contact : metmap@orbifly.com




SOURCES & CREDITS :

   NOAA